SBGR/GRU METAR and TAF weather

Enter ICAO airport designator
Station Type Date Time Source
SBGR METAR 2019/05/26 01:00 UTC NOAA

SBGR 260100Z 16003KT 9999 BKN036 16/13 Q1020


Station Type Date Time Source
SBGR Decoded METAR 2019/05/26 01:00 UTC NOAA

Guarulhos Civ / Mil , Brazil (SBGR) 23-26S 046-28W
May 25, 2019 - 09:00 PM EDT / 2019.05.26 0100 UTC
Wind: from the SSE (160 degrees) at 3 MPH (3 KT):0
Visibility: greater than 7 mile(s):0
Sky conditions: mostly cloudy
Temperature: 60 F (16 C)
Dew Point: 55 F (13 C)
Relative Humidity: 82%
Pressure (altimeter): 30.12 in. Hg (1020 hPa)
ob: SBGR 260100Z 16003KT 9999 BKN036 16/13 Q1020
cycle: 1

Station Type Date Time Source
SBGR TAF 2019/05/26 00:30 UTC NOAA

TAF TAF SBGR 252230Z 2600/2706 17003KT 9999 BKN020TN12/2608Z TX22/2617Z
BECMG 2603/2605 14005KT FEW016 PROB30 2608/2611 2000 BCFG BR BKN002
BECMG 2611/2613 09005KT FEW020
BECMG 2613/2615 FEW035
RMK PGQ

Example: see airport list